Time;durP1;ratioP1;P1;durP2;ratioP2;P2;SDS_P1;SDS_P2;PMS_P1;PMS_P2;Temp;Humidity;BMP_temperature;BMP_pressure;BME280_temperature;BME280_humidity;BME280_pressure;Samples;Min_cycle;Max_cycle;Signal;HPM_P1;HPM_P2
2021/03/02 00:00:24;;;;;;;31.48;17.95;;;;;;;0.98;88.32;101766.63;2056207;28;20031;-58
2021/03/02 00:01:25;;;;;;;31.73;18.55;;;;;;;0.91;88.47;101770.66;2055923;28;20387;-58
2021/03/02 00:02:26;;;;;;;29.20;17.42;;;;;;;0.89;88.37;101773.19;2056181;28;20027;-58
2021/03/02 00:03:27;;;;;;;31.23;18.33;;;;;;;0.85;88.63;101771.31;2047452;29;20023;-59
2021/03/02 00:04:28;;;;;;;34.75;17.17;;;;;;;0.82;88.55;101766.09;2047876;29;20023;-59
2021/03/02 00:05:28;;;;;;;;;;;;;;;0.83;88.69;101772.09;2055876;28;20046;-59
2021/03/02 00:06:29;;;;;;;30.30;16.85;;;;;;;0.78;88.70;101779.63;2055780;28;19910;-59
2021/03/02 00:07:30;;;;;;;26.40;16.27;;;;;;;0.77;88.91;101778.78;2056025;28;20034;-59
2021/03/02 00:08:31;;;;;;;27.65;18.40;;;;;;;0.76;89.04;101773.56;2056297;28;20038;-59
2021/03/02 00:09:32;;;;;;;29.40;17.45;;;;;;;0.72;89.33;101780.28;2056073;28;20479;-59
2021/03/02 00:10:32;;;;;;;27.30;17.47;;;;;;;0.73;89.60;101781.16;2055863;28;20031;-59
2021/03/02 00:11:36;;;;;;;32.97;17.17;;;;;;;0.73;90.25;101774.34;2055962;28;20026;-59
2021/03/02 00:12:37;;;;;;;31.05;17.73;;;;;;;0.68;90.39;101773.31;2056138;28;20031;-58
2021/03/02 00:13:37;;;;;;;;;;;;;;;0.61;90.69;101777.34;2056481;28;20046;-59
2021/03/02 00:14:38;;;;;;;27.85;16.55;;;;;;;0.58;90.65;101778.94;2055390;28;19910;-58
2021/03/02 00:15:38;;;;;;;27.37;16.80;;;;;;;0.57;90.85;101779.75;2055025;28;20364;-58
2021/03/02 00:16:43;;;;;;;31.53;18.10;;;;;;;0.61;91.49;101779.91;2047908;28;20038;-58
2021/03/02 00:17:51;;;;;;;29.92;17.30;;;;;;;0.57;91.34;101782.31;2053206;28;20037;-58
2021/03/02 00:19:00;;;;;;;30.13;18.40;;;;;;;0.54;91.50;101784.75;2056031;28;20488;-58
2021/03/02 00:20:07;;;;;;;29.02;17.73;;;;;;;0.50;91.55;101782.88;2039961;29;20288;-59
2021/03/02 00:21:15;;;;;;;27.88;17.45;;;;;;;0.47;91.56;101781.09;2040655;29;20032;-59
2021/03/02 00:22:24;;;;;;;31.05;18.27;;;;;;;0.44;91.75;101776.72;2047947;29;20531;-57
2021/03/02 00:23:26;;;;;;;33.65;17.23;;;;;;;0.42;91.94;101777.50;2054745;28;20303;-58
2021/03/02 00:24:36;;;;;;;31.98;18.70;;;;;;;0.44;92.27;101779.28;2055862;28;20033;-58
2021/03/02 00:25:39;;;;;;;29.13;18.23;;;;;;;0.51;92.60;101782.06;2056216;28;20019;-58
2021/03/02 00:26:46;;;;;;;31.08;17.73;;;;;;;0.56;92.54;101778.00;2055807;28;20041;-58
2021/03/02 00:27:47;;;;;;;29.38;19.60;;;;;;;0.63;92.87;101779.09;2056072;28;20019;-58
2021/03/02 00:28:50;;;;;;;28.50;18.02;;;;;;;0.63;93.18;101779.09;2052833;28;20024;-57
2021/03/02 00:29:51;;;;;;;28.95;17.85;;;;;;;0.67;93.31;101774.13;2047675;28;20154;-58
2021/03/02 00:30:54;;;;;;;31.30;18.67;;;;;;;0.77;93.61;101781.34;2048012;29;20545;-57
2021/03/02 00:31:56;;;;;;;27.73;17.33;;;;;;;0.77;93.74;101772.75;2053476;28;20134;-58
2021/03/02 00:32:58;;;;;;;32.42;19.55;;;;;;;0.78;93.82;101775.34;2055847;28;20027;-58
2021/03/02 00:33:59;;;;;;;29.33;18.40;;;;;;;0.77;93.72;101780.44;2056165;28;20029;-58
2021/03/02 00:34:59;;;;;;;26.52;17.73;;;;;;;0.68;93.70;101781.00;2055876;28;20030;-58
2021/03/02 00:36:00;;;;;;;28.07;18.27;;;;;;;0.73;93.67;101792.28;2048689;28;20065;-58
2021/03/02 00:37:00;;;;;;;27.90;17.33;;;;;;;0.61;93.68;101785.03;2050920;28;20506;-58
2021/03/02 00:38:00;;;;;;;32.00;17.90;;;;;;;0.57;93.71;101790.88;2055763;28;20038;-58
2021/03/02 00:39:01;;;;;;;27.53;17.00;;;;;;;0.55;93.60;101794.19;2055819;28;20027;-58
2021/03/02 00:40:01;;;;;;;25.80;16.80;;;;;;;0.49;93.45;101792.28;2048610;28;20102;-58
2021/03/02 00:41:02;;;;;;;29.40;17.60;;;;;;;0.48;93.54;101794.81;2039316;29;20492;-58
2021/03/02 00:42:02;;;;;;;26.47;17.17;;;;;;;0.53;93.64;101794.16;2039668;29;20031;-58
2021/03/02 00:43:03;;;;;;;30.10;18.60;;;;;;;0.57;93.67;101790.88;2051260;28;20058;-58
2021/03/02 00:44:03;;;;;;;26.73;17.87;;;;;;;0.64;93.67;101793.66;2048577;28;20388;-58
2021/03/02 00:45:04;;;;;;;29.40;17.83;;;;;;;0.69;93.37;101792.13;2047925;29;20023;-57
2021/03/02 00:46:04;;;;;;;27.58;17.30;;;;;;;0.66;93.22;101792.00;2047821;28;20608;-58
2021/03/02 00:47:05;;;;;;;28.77;18.50;;;;;;;0.57;93.32;101793.44;2047977;29;20153;-58
2021/03/02 00:48:06;;;;;;;32.53;17.87;;;;;;;0.53;93.27;101794.16;2048099;29;20085;-58
2021/03/02 00:49:06;;;;;;;28.42;18.73;;;;;;;0.52;93.41;101794.97;2048797;28;20113;-58
2021/03/02 00:50:07;;;;;;;27.13;17.70;;;;;;;0.52;93.03;101792.41;2055429;28;20081;-58
2021/03/02 00:51:08;;;;;;;31.00;17.92;;;;;;;0.44;93.05;101788.69;2047075;29;20274;-58
2021/03/02 00:52:08;;;;;;;26.53;16.93;;;;;;;0.37;93.03;101787.59;2047215;29;20504;-57
2021/03/02 00:53:08;;;;;;;27.13;16.90;;;;;;;0.30;93.17;101789.03;2055826;28;20022;-58
2021/03/02 00:54:08;;;;;;;28.30;18.23;;;;;;;0.24;93.34;101786.25;2047918;29;20392;-58
2021/03/02 00:55:09;;;;;;;26.27;17.87;;;;;;;0.23;93.40;101788.75;2048139;29;20027;-57
2021/03/02 00:56:10;;;;;;;28.38;18.17;;;;;;;0.21;93.60;101791.25;2047844;28;20082;-58
2021/03/02 00:57:10;;;;;;;31.17;17.80;;;;;;;0.17;93.69;101794.50;2047937;29;20054;-58
2021/03/02 00:58:10;;;;;;;29.67;17.90;;;;;;;0.17;93.89;101788.50;2048649;28;20488;-58
2021/03/02 00:59:10;;;;;;;29.57;17.67;;;;;;;0.13;94.09;101790.09;2055794;28;20029;-58
2021/03/02 01:00:12;;;;;;;28.60;18.03;;;;;;;0.12;94.15;101794.34;2055440;28;20023;-58
2021/03/02 01:01:13;;;;;;;27.70;17.15;;;;;;;0.10;94.32;101793.38;2055439;28;20018;-58
2021/03/02 01:02:13;;;;;;;27.20;17.95;;;;;;;0.13;94.59;101796.06;2055126;28;20027;-58
2021/03/02 01:03:13;;;;;;;27.40;17.67;;;;;;;0.15;94.76;101794.47;2048668;28;20031;-58
2021/03/02 01:04:14;;;;;;;27.67;17.30;;;;;;;0.21;94.99;101793.81;2055923;28;20034;-58
2021/03/02 01:05:14;;;;;;;32.03;18.50;;;;;;;0.23;94.93;101794.75;2054691;28;20054;-58
2021/03/02 01:06:15;;;;;;;29.30;18.27;;;;;;;0.18;94.89;101795.41;2055001;28;20035;-58
2021/03/02 01:07:15;;;;;;;30.10;19.13;;;;;;;0.14;95.09;101790.13;2055070;28;20039;-58
2021/03/02 01:08:16;;;;;;;28.70;17.97;;;;;;;0.10;94.85;101798.53;2055748;28;20029;-60
2021/03/02 01:09:16;;;;;;;29.13;17.63;;;;;;;0.06;94.84;101795.78;2048125;28;20042;-59
2021/03/02 01:10:17;;;;;;;26.57;17.33;;;;;;;0.00;94.67;101791.31;2064291;23;20449;-59
2021/03/02 01:11:18;;;;;;;27.90;17.92;;;;;;;0.05;94.79;101797.47;2063299;28;20413;-59
2021/03/02 01:12:18;;;;;;;28.57;18.00;;;;;;;0.07;94.99;101793.28;2062918;28;20026;-59
2021/03/02 01:13:18;;;;;;;29.80;17.40;;;;;;;-0.01;94.87;101789.56;2062686;28;20372;-59
2021/03/02 01:14:19;;;;;;;27.13;16.83;;;;;;;-0.08;95.09;101796.13;2062064;28;20089;-58
2021/03/02 01:15:19;;;;;;;27.37;17.87;;;;;;;-0.14;95.05;101793.31;2061684;28;20022;-58
2021/03/02 01:16:19;;;;;;;26.63;17.00;;;;;;;-0.19;95.09;101787.16;2062038;28;20097;-57
2021/03/02 01:17:20;;;;;;;29.00;17.80;;;;;;;-0.22;95.11;101787.00;2062763;28;20501;-58
2021/03/02 01:18:21;;;;;;;30.47;17.97;;;;;;;-0.26;95.15;101795.41;2063334;28;20023;-58
2021/03/02 01:19:21;;;;;;;31.75;18.63;;;;;;;-0.27;95.33;101788.53;2055280;28;20535;-58
2021/03/02 01:20:22;;;;;;;29.23;17.63;;;;;;;-0.26;95.60;101787.72;2062935;28;20030;-58
2021/03/02 01:21:22;;;;;;;27.73;17.60;;;;;;;-0.28;95.69;101794.47;2063315;28;20442;-58
2021/03/02 01:22:23;;;;;;;28.67;18.10;;;;;;;-0.35;95.73;101783.09;2063331;28;20037;-58
2021/03/02 01:23:23;;;;;;;28.43;17.63;;;;;;;-0.30;95.82;101790.97;2063296;28;20479;-58
2021/03/02 01:24:23;;;;;;;33.37;19.57;;;;;;;-0.30;96.27;101785.84;2064005;28;20034;-58
2021/03/02 01:25:24;;;;;;;29.30;18.03;;;;;;;-0.28;96.30;101786.78;2063817;28;20108;-58
2021/03/02 01:26:24;;;;;;;30.47;19.20;;;;;;;-0.29;96.52;101787.59;2062166;28;20037;-58
2021/03/02 01:27:24;;;;;;;32.33;19.03;;;;;;;-0.30;96.66;101790.97;2058335;28;20623;-58
2021/03/02 01:28:25;;;;;;;31.60;19.27;;;;;;;-0.36;96.56;101782.22;2065533;28;20097;-58
2021/03/02 01:29:25;;;;;;;26.60;17.47;;;;;;;-0.40;96.62;101780.34;2065176;28;20027;-59
2021/03/02 01:30:26;;;;;;;26.80;17.93;;;;;;;-0.42;96.56;101783.66;2065176;28;20072;-60
2021/03/02 01:31:26;;;;;;;30.27;18.00;;;;;;;-0.45;96.67;101781.88;2065262;28;20018;-60
2021/03/02 01:32:26;;;;;;;30.87;18.13;;;;;;;-0.44;96.93;101785.28;2065317;28;20105;-59
2021/03/02 01:33:27;;;;;;;29.33;18.83;;;;;;;-0.47;96.91;101786.03;2065176;28;20375;-59
2021/03/02 01:34:27;;;;;;;30.47;18.50;;;;;;;-0.47;97.20;101788.59;2064728;28;20037;-58
2021/03/02 01:35:27;;;;;;;30.47;19.03;;;;;;;-0.44;97.46;101791.28;2059933;28;20034;-58
2021/03/02 01:36:28;;;;;;;30.67;18.60;;;;;;;-0.44;97.44;101790.41;2057237;28;20468;-58
2021/03/02 01:37:28;;;;;;;30.10;18.73;;;;;;;-0.45;97.44;101791.22;2057296;28;20041;-58
2021/03/02 01:38:29;;;;;;;31.50;17.47;;;;;;;-0.48;97.56;101786.84;2057466;28;20031;-58
2021/03/02 01:39:30;;;;;;;31.17;19.20;;;;;;;-0.53;97.47;101789.22;2056528;28;20023;-58
2021/03/02 01:40:30;;;;;;;33.22;19.98;;;;;;;-0.56;97.44;101788.22;2056439;28;20412;-58
2021/03/02 01:41:31;;;;;;;32.23;18.93;;;;;;;-0.57;97.42;101791.59;2064687;28;20041;-59
2021/03/02 01:42:31;;;;;;;30.50;17.60;;;;;;;-0.63;97.52;101790.53;2057382;28;20027;-56
2021/03/02 01:43:31;;;;;;;27.07;17.30;;;;;;;-0.66;97.66;101789.53;2057191;28;20452;-59
2021/03/02 01:44:32;;;;;;;32.10;18.57;;;;;;;-0.66;97.50;101790.41;2056799;28;20058;-58
2021/03/02 01:45:32;;;;;;;29.23;18.37;;;;;;;-0.71;97.42;101789.34;2056665;28;20050;-58
2021/03/02 01:46:33;;;;;;;32.47;18.53;;;;;;;-0.73;97.32;101790.94;2057139;28;20682;-58
2021/03/02 01:47:33;;;;;;;28.83;18.20;;;;;;;-0.75;97.44;101790.03;2057337;28;20027;-58
2021/03/02 01:48:35;;;;;;;27.65;18.40;;;;;;;-0.77;97.32;101791.66;2057508;28;20033;-58
2021/03/02 01:49:35;;;;;;;;;;;;;;;-0.79;97.49;101790.72;2058271;28;20796;-58
2021/03/02 01:50:36;;;;;;;32.40;17.13;;;;;;;-0.79;97.17;101793.25;2062542;28;19909;-58
2021/03/02 01:51:36;;;;;;;28.53;17.17;;;;;;;-0.84;97.19;101784.53;2060279;28;20023;-59
2021/03/02 01:52:36;;;;;;;32.00;17.47;;;;;;;-0.88;97.17;101783.50;2063717;28;20022;-58
2021/03/02 01:53:37;;;;;;;33.13;17.03;;;;;;;-0.87;97.27;101780.13;2064814;28;20046;-57
2021/03/02 01:54:37;;;;;;;32.63;18.20;;;;;;;-0.90;97.10;101781.69;2065059;28;20702;-57
2021/03/02 01:55:37;;;;;;;27.87;18.30;;;;;;;-0.88;97.24;101785.19;2065038;28;20101;-58
2021/03/02 01:56:38;;;;;;;31.10;18.73;;;;;;;-0.91;97.25;101785.94;2072138;28;20073;-59
2021/03/02 01:57:38;;;;;;;29.40;18.13;;;;;;;-0.92;97.20;101784.19;2064424;28;20026;-58
2021/03/02 01:58:39;;;;;;;30.17;18.30;;;;;;;-0.93;97.33;101776.47;2064355;28;20487;-58
2021/03/02 01:59:39;;;;;;;32.53;18.20;;;;;;;-0.96;97.60;101783.19;2065089;28;20022;-58
2021/03/02 02:00:40;;;;;;;30.47;18.77;;;;;;;-0.92;97.80;101786.75;2064695;28;20027;-58
2021/03/02 02:01:40;;;;;;;32.55;17.77;;;;;;;-0.93;97.79;101787.56;2065020;28;20482;-58
2021/03/02 02:02:56;;;;;;;36.00;19.15;;;;;;;-0.95;97.85;101771.25;2072195;28;20026;-58
2021/03/02 02:04:21;;;;;;;37.92;18.08;;;;;;;-0.93;97.96;101776.47;2069621;28;20072;-58
2021/03/02 02:05:24;;;;;;;28.50;17.63;;;;;;;-0.91;98.20;101775.72;2064030;28;20030;-58
2021/03/02 02:06:46;;;;;;;31.42;18.48;;;;;;;-0.90;97.83;101771.47;2061002;28;20053;-58
2021/03/02 02:07:53;;;;;;;30.50;18.23;;;;;;;-0.96;97.77;101775.53;2062779;28;20022;-58
2021/03/02 02:09:17;;;;;;;28.73;17.13;;;;;;;-0.96;97.92;101778.06;2063456;28;20557;-58
2021/03/02 02:10:25;;;;;;;27.77;16.67;;;;;;;-0.90;98.01;101776.56;2056809;28;20033;-58
2021/03/02 02:11:32;;;;;;;29.52;18.15;;;;;;;-0.87;98.09;101776.72;2064159;28;20065;-58
2021/03/02 02:12:38;;;;;;;35.25;19.30;;;;;;;-0.82;98.35;101781.22;2056129;28;20022;-58
2021/03/02 02:13:45;;;;;;;30.50;18.67;;;;;;;-0.79;98.49;101778.78;2057036;28;20106;-58
2021/03/02 02:14:51;;;;;;;36.22;20.25;;;;;;;-0.73;98.72;101775.59;2067029;28;20018;-58
2021/03/02 02:15:55;;;;;;;38.10;20.70;;;;;;;-0.75;98.88;101777.22;2064755;28;20158;-58
2021/03/02 02:16:58;;;;;;;36.53;19.33;;;;;;;-0.70;98.98;101780.84;2064791;28;20018;-58
2021/03/02 02:18:13;;;;;;;32.03;19.73;;;;;;;-0.68;98.94;101781.78;2064320;28;20026;-58
2021/03/02 02:19:48;;;;;;;35.90;19.90;;;;;;;-0.70;99.16;101785.09;2063698;28;20417;-58
2021/03/02 02:21:04;;;;;;;35.08;19.13;;;;;;;-0.72;98.88;101782.47;2062603;28;20021;-58
2021/03/02 02:22:16;;;;;;;33.08;19.25;;;;;;;-0.76;98.93;101780.59;2065131;28;20046;-58
2021/03/02 02:23:35;;;;;;;33.20;19.45;;;;;;;-0.79;98.78;101777.91;2072561;28;20026;-58
2021/03/02 02:25:11;;;;;;;37.38;18.52;;;;;;;-0.76;98.91;101787.38;2064542;28;20648;-58
2021/03/02 02:26:32;;;;;;;28.65;18.27;;;;;;;-0.81;98.80;101779.53;2064701;28;20104;-58
2021/03/02 02:27:33;;;;;;;32.63;17.80;;;;;;;-0.80;99.18;101784.72;2057071;28;20034;-58
2021/03/02 02:28:37;;;;;;;29.88;18.92;;;;;;;-0.79;99.09;101785.59;2056345;28;20037;-58
2021/03/02 02:29:38;;;;;;;31.65;19.50;;;;;;;-0.83;99.06;101783.69;2055942;28;20476;-58
2021/03/02 02:30:41;;;;;;;30.17;18.73;;;;;;;-0.87;99.15;101780.13;2056208;28;20023;-58
2021/03/02 02:31:43;;;;;;;33.85;18.50;;;;;;;-0.86;99.20;101778.47;2056124;28;20027;-58
2021/03/02 02:32:46;;;;;;;33.58;20.52;;;;;;;-0.87;99.39;101781.84;2056194;28;20027;-58
2021/03/02 02:33:50;;;;;;;36.15;20.27;;;;;;;-0.82;99.40;101785.44;2056724;28;20379;-58
2021/03/02 02:34:51;;;;;;;32.17;19.75;;;;;;;-0.86;99.51;101778.47;2064409;28;20068;-58
2021/03/02 02:35:52;;;;;;;36.00;20.45;;;;;;;-0.89;99.64;101776.66;2064563;28;20026;-58
2021/03/02 02:36:54;;;;;;;36.60;20.75;;;;;;;-0.92;99.94;101775.63;2064857;28;20014;-58
2021/03/02 02:37:56;;;;;;;33.70;19.80;;;;;;;-0.92;99.60;101779.06;2063663;28;20513;-58
2021/03/02 02:38:59;;;;;;;36.10;19.58;;;;;;;-0.96;99.64;101772.97;2064964;28;20018;-58
2021/03/02 02:40:01;;;;;;;37.17;20.27;;;;;;;-1.00;99.66;101771.06;2064332;28;20522;-56
2021/03/02 02:41:02;;;;;;;;;;;;;;;-1.04;99.79;101776.88;2065495;28;20431;-56
2021/03/02 02:42:03;;;;;;;33.85;19.23;;;;;;;-1.09;99.64;101780.91;2064803;28;20000;-56
2021/03/02 02:43:06;;;;;;;35.67;19.15;;;;;;;-1.07;99.64;101778.41;2064884;28;20654;-56
2021/03/02 02:44:08;;;;;;;34.25;20.45;;;;;;;-1.12;99.60;101773.09;2064732;28;20056;-56
2021/03/02 02:45:09;;;;;;;34.20;20.60;;;;;;;-1.13;99.70;101774.78;2064911;28;20018;-58
2021/03/02 02:46:10;;;;;;;;;;;;;;;-1.17;99.68;101775.44;2064228;28;20030;-58
2021/03/02 02:47:11;;;;;;;33.20;19.17;;;;;;;-1.18;99.87;101780.50;2064291;28;19937;-58
2021/03/02 02:48:11;;;;;;;34.40;19.98;;;;;;;-1.17;99.78;101778.00;2064690;28;20065;-58
2021/03/02 02:49:13;;;;;;;37.88;21.60;;;;;;;-1.16;99.78;101776.34;2064806;28;20371;-58
2021/03/02 02:50:15;;;;;;;33.75;20.25;;;;;;;-1.18;99.99;101772.84;2063985;28;20065;-58
2021/03/02 02:51:16;;;;;;;32.75;20.20;;;;;;;-1.18;99.89;101775.41;2064929;28;20027;-58
2021/03/02 02:52:17;;;;;;;35.80;20.27;;;;;;;-1.20;100.00;101777.91;2064545;28;20034;-58
2021/03/02 02:53:18;;;;;;;34.10;19.65;;;;;;;-1.22;100.00;101779.50;2064763;28;20435;-58
2021/03/02 02:54:19;;;;;;;32.72;19.80;;;;;;;-1.21;100.00;101776.16;2064810;28;20034;-58
2021/03/02 02:55:31;;;;;;;37.57;20.67;;;;;;;-1.28;99.96;101779.25;2064813;28;20432;-58
2021/03/02 02:56:35;;;;;;;33.30;19.75;;;;;;;-1.29;100.00;101770.69;2063144;28;20616;-58
2021/03/02 02:57:41;;;;;;;33.05;18.95;;;;;;;-1.32;99.98;101778.22;2063844;28;20026;-58
2021/03/02 02:58:50;;;;;;;32.05;19.85;;;;;;;-1.34;99.93;101777.31;2061227;28;20034;-58
2021/03/02 02:59:53;;;;;;;32.25;19.08;;;;;;;-1.34;99.90;101778.97;2063145;28;20022;-58
2021/03/02 03:00:57;;;;;;;33.28;19.42;;;;;;;-1.34;100.00;101782.41;2064357;28;20138;-58
2021/03/02 03:02:03;;;;;;;31.27;18.63;;;;;;;-1.37;99.92;101779.72;2064005;28;20065;-59
2021/03/02 03:03:08;;;;;;;32.97;19.08;;;;;;;-1.37;99.80;101782.28;2059956;28;20069;-57
2021/03/02 03:04:12;;;;;;;33.85;19.67;;;;;;;-1.39;99.80;101785.56;2063140;28;20044;-57
2021/03/02 03:05:17;;;;;;;34.38;20.15;;;;;;;-1.39;99.83;101785.56;2060292;28;20022;-57
2021/03/02 03:06:19;;;;;;;34.78;19.30;;;;;;;-1.38;99.89;101782.22;2061540;28;20506;-58
2021/03/02 03:07:28;;;;;;;33.78;19.30;;;;;;;-1.34;99.89;101784.09;2061049;28;20076;-58
2021/03/02 03:08:33;;;;;;;35.30;19.75;;;;;;;-1.32;100.00;101783.34;2056983;28;20034;-57
2021/03/02 03:09:36;;;;;;;35.00;19.60;;;;;;;-1.34;100.00;101784.09;2063785;28;20026;-57
2021/03/02 03:10:37;;;;;;;32.83;18.85;;;;;;;-1.34;100.00;101779.84;2062982;28;20420;-57
2021/03/02 03:11:45;;;;;;;35.60;20.33;;;;;;;-1.33;100.00;101784.16;2063719;28;20026;-58
2021/03/02 03:12:48;;;;;;;31.98;18.77;;;;;;;-1.35;100.00;101783.22;2064416;28;20022;-58
2021/03/02 03:13:51;;;;;;;32.40;20.50;;;;;;;-1.37;100.00;101784.84;2063562;28;20090;-59
2021/03/02 03:14:59;;;;;;;34.50;20.77;;;;;;;-1.40;100.00;101782.13;2054914;28;20070;-59
2021/03/02 03:16:02;;;;;;;38.03;20.88;;;;;;;-1.43;100.00;101782.88;2055831;28;20063;-59
2021/03/02 03:17:06;;;;;;;31.98;18.75;;;;;;;-1.41;100.00;101788.03;2063502;28;20023;-59
2021/03/02 03:18:08;;;;;;;33.95;19.27;;;;;;;-1.38;100.00;101785.63;2063789;28;20034;-59
2021/03/02 03:19:17;;;;;;;32.90;19.88;;;;;;;-1.33;100.00;101791.84;2064047;28;20069;-58
2021/03/02 03:20:19;;;;;;;33.17;19.55;;;;;;;-1.44;100.00;101787.94;2063402;28;20031;-59
2021/03/02 03:21:19;;;;;;;41.78;21.13;;;;;;;-1.44;100.00;101782.81;2064410;28;20480;-57
2021/03/02 03:22:20;;;;;;;31.57;19.47;;;;;;;-1.50;100.00;101785.97;2064155;28;20019;-57
2021/03/02 03:23:20;;;;;;;30.85;18.90;;;;;;;-1.49;100.00;101785.16;2064430;28;20033;-57
2021/03/02 03:24:23;;;;;;;29.50;19.13;;;;;;;-1.51;100.00;101785.88;2064522;28;20034;-57
2021/03/02 03:25:24;;;;;;;30.13;18.15;;;;;;;-1.51;100.00;101786.78;2064704;28;20066;-57
2021/03/02 03:26:29;;;;;;;33.40;19.08;;;;;;;-1.55;100.00;101784.88;2064387;28;20070;-57
2021/03/02 03:27:32;;;;;;;33.35;18.40;;;;;;;-1.54;100.00;101781.50;2064714;28;20033;-57
2021/03/02 03:28:33;;;;;;;32.75;18.73;;;;;;;-1.55;100.00;101782.31;2064433;28;20023;-57
2021/03/02 03:29:35;;;;;;;32.42;19.63;;;;;;;-1.57;100.00;101787.38;2064094;28;20038;-57
2021/03/02 03:30:37;;;;;;;33.15;20.30;;;;;;;-1.57;100.00;101784.81;2063577;28;20030;-57
2021/03/02 03:31:37;;;;;;;34.45;20.05;;;;;;;-1.61;100.00;101780.34;2063925;28;20023;-59
2021/03/02 03:32:43;;;;;;;31.27;18.80;;;;;;;-1.62;100.00;101777.75;2063469;28;20034;-59
2021/03/02 03:33:44;;;;;;;34.80;18.77;;;;;;;-1.62;100.00;101780.31;2064587;28;20030;-59
2021/03/02 03:34:46;;;;;;;33.90;19.45;;;;;;;-1.64;100.00;101785.34;2064072;28;20395;-59
2021/03/02 03:35:47;;;;;;;29.77;19.20;;;;;;;-1.65;100.00;101783.59;2071663;28;20109;-59
2021/03/02 03:36:49;;;;;;;32.22;18.83;;;;;;;-1.67;100.00;101782.66;2071517;28;20017;-59
2021/03/02 03:37:49;;;;;;;35.60;20.30;;;;;;;-1.66;100.00;101789.50;2071855;28;20038;-57
2021/03/02 03:38:50;;;;;;;33.27;19.03;;;;;;;-1.70;100.00;101791.88;2063632;28;20384;-59
2021/03/02 03:39:50;;;;;;;32.23;19.27;;;;;;;-1.70;100.00;101795.28;2062651;28;20022;-59
2021/03/02 03:40:51;;;;;;;31.43;19.60;;;;;;;-1.70;100.00;101792.72;2064347;28;20062;-59
2021/03/02 03:41:52;;;;;;;36.22;19.75;;;;;;;-1.71;100.00;101793.53;2064446;28;20030;-59
2021/03/02 03:42:52;;;;;;;31.85;17.95;;;;;;;-1.74;100.00;101794.28;2063149;28;20026;-59
2021/03/02 03:43:52;;;;;;;32.43;19.13;;;;;;;-1.74;100.00;101795.97;2063946;28;20024;-57
2021/03/02 03:44:53;;;;;;;30.37;19.10;;;;;;;-1.75;100.00;101796.75;2063252;28;20022;-57
2021/03/02 03:45:53;;;;;;;31.27;18.67;;;;;;;-1.74;100.00;101801.94;2064278;28;20089;-57
2021/03/02 03:46:54;;;;;;;29.73;18.80;;;;;;;-1.74;100.00;101801.06;2064265;28;20093;-59
2021/03/02 03:47:55;;;;;;;30.83;18.93;;;;;;;-1.69;100.00;101802.16;2064770;28;20475;-58
2021/03/02 03:48:56;;;;;;;31.15;18.98;;;;;;;-1.71;100.00;101801.19;2078629;23;20018;-62
2021/03/02 03:49:56;;;;;;;29.50;18.87;;;;;;;-1.70;100.00;101805.50;2054659;28;20038;-61
2021/03/02 03:50:57;;;;;;;32.90;19.53;;;;;;;-1.69;100.00;101802.16;2063495;28;20022;-62
2021/03/02 03:51:59;;;;;;;31.73;19.33;;;;;;;-1.71;100.00;101811.41;2055766;28;20019;-62
2021/03/02 03:53:03;;;;;;;31.98;19.33;;;;;;;-1.74;100.00;101803.63;2063446;28;20778;-61
2021/03/02 03:54:06;;;;;;;39.13;19.60;;;;;;;-1.70;100.00;101800.41;2063800;28;20121;-61
2021/03/02 03:55:11;;;;;;;35.33;19.30;;;;;;;-1.76;100.00;101803.53;2071146;28;20093;-62
2021/03/02 03:56:13;;;;;;;35.33;19.77;;;;;;;-1.77;100.00;101803.47;2063766;28;20029;-62
2021/03/02 03:57:15;;;;;;;33.53;19.83;;;;;;;-1.78;100.00;101801.72;2063174;28;20113;-62
2021/03/02 03:58:19;;;;;;;33.58;19.13;;;;;;;-1.75;100.00;101812.09;2055721;28;20038;-61
2021/03/02 03:59:25;;;;;;;35.15;20.60;;;;;;;-1.71;100.00;101808.88;2055398;28;20041;-62
2021/03/02 04:00:26;;;;;;;33.72;20.13;;;;;;;-1.74;100.00;101803.63;2055536;28;20091;-62
2021/03/02 04:01:27;;;;;;;34.75;21.00;;;;;;;-1.77;100.00;101811.16;2055654;28;20730;-61
2021/03/02 04:02:29;;;;;;;37.55;21.27;;;;;;;-1.76;100.00;101800.97;2063456;28;20041;-62
2021/03/02 04:03:34;;;;;;;35.88;19.85;;;;;;;-1.81;100.00;101802.47;2071505;28;20026;-61
2021/03/02 04:04:37;;;;;;;34.05;20.20;;;;;;;-1.81;100.00;101796.50;2071352;28;20120;-62
2021/03/02 04:05:38;;;;;;;31.25;18.45;;;;;;;-1.80;100.00;101805.88;2063588;28;20037;-61
2021/03/02 04:06:39;;;;;;;35.90;21.13;;;;;;;-1.81;100.00;101799.06;2063638;28;20498;-61
2021/03/02 04:07:40;;;;;;;34.47;19.92;;;;;;;-1.80;100.00;101800.78;2064274;28;20038;-61
2021/03/02 04:08:40;;;;;;;36.00;19.20;;;;;;;-1.83;100.00;101803.22;2062993;28;20022;-62
2021/03/02 04:09:42;;;;;;;32.53;19.30;;;;;;;-1.80;100.00;101805.88;2058842;28;20483;-62
2021/03/02 04:10:43;;;;;;;36.05;19.95;;;;;;;-1.78;100.00;101801.72;2063284;28;20395;-62
2021/03/02 04:11:44;;;;;;;32.45;19.10;;;;;;;-1.79;100.00;101805.97;2063578;28;20538;-61
2021/03/02 04:12:46;;;;;;;35.07;20.27;;;;;;;-1.80;100.00;101811.00;2064095;28;20054;-61
2021/03/02 04:13:46;;;;;;;34.47;20.33;;;;;;;-1.80;100.00;101804.22;2063560;28;20027;-61
2021/03/02 04:14:48;;;;;;;33.37;19.97;;;;;;;-1.83;100.00;101805.75;2064403;28;20470;-61
2021/03/02 04:15:48;;;;;;;34.92;19.23;;;;;;;-1.84;100.00;101806.56;2063964;28;20030;-61
2021/03/02 04:16:49;;;;;;;35.43;20.33;;;;;;;-1.84;100.00;101802.31;2064225;28;20033;-61
2021/03/02 04:17:57;;;;;;;35.17;20.70;;;;;;;-1.88;100.00;101806.41;2064366;28;20038;-61
2021/03/02 04:18:57;;;;;;;33.58;19.25;;;;;;;-1.89;100.00;101807.22;2063809;28;20026;-61
2021/03/02 04:19:58;;;;;;;32.70;19.50;;;;;;;-1.81;100.00;101809.28;2063025;28;20050;-61
2021/03/02 04:21:00;;;;;;;33.75;19.55;;;;;;;-1.84;100.00;101806.56;2064105;28;20026;-61
2021/03/02 04:22:01;;;;;;;33.40;19.45;;;;;;;-1.83;100.00;101805.75;2064057;28;20026;-61
2021/03/02 04:23:01;;;;;;;37.50;24.03;;;;;;;-1.89;100.00;101808.91;2064053;28;20018;-61
2021/03/02 04:24:01;;;;;;;34.60;20.30;;;;;;;-1.84;100.00;101809.13;2064013;28;20126;-61
2021/03/02 04:25:06;;;;;;;36.40;20.73;;;;;;;-1.92;100.00;101803.66;2064263;28;20018;-61
2021/03/02 04:26:06;;;;;;;36.60;20.23;;;;;;;-1.96;100.00;101805.19;2063292;28;20087;-61
2021/03/02 04:27:06;;;;;;;30.37;19.30;;;;;;;-1.98;100.00;101806.78;2063523;28;20721;-61
2021/03/02 04:28:07;;;;;;;33.63;19.03;;;;;;;-1.98;100.00;101813.59;2063863;28;20034;-61
2021/03/02 04:29:07;;;;;;;32.23;20.20;;;;;;;-2.01;100.00;101810.88;2064142;28;20375;-61
2021/03/02 04:30:11;;;;;;;34.93;20.70;;;;;;;-2.02;100.00;101812.56;2063174;28;20100;-61
2021/03/02 04:31:16;;;;;;;33.00;19.33;;;;;;;-1.95;100.00;101814.59;2063246;28;20053;-61
2021/03/02 04:32:18;;;;;;;33.33;19.25;;;;;;;-1.92;100.00;101809.66;2062931;28;20109;-61
2021/03/02 04:33:18;;;;;;;36.63;20.50;;;;;;;-1.95;100.00;101809.50;2063027;28;20026;-61
2021/03/02 04:34:18;;;;;;;33.70;18.43;;;;;;;-1.96;100.00;101812.84;2062630;28;20398;-61
2021/03/02 04:35:19;;;;;;;34.33;19.60;;;;;;;-1.95;100.00;101814.59;2063010;28;20045;-61
2021/03/02 04:36:19;;;;;;;35.60;19.77;;;;;;;-1.99;100.00;101817.81;2063483;28;20084;-61
2021/03/02 04:37:20;;;;;;;33.70;19.13;;;;;;;-2.02;100.00;101812.56;2064021;28;20305;-61
2021/03/02 04:38:20;;;;;;;35.20;19.80;;;;;;;-2.03;100.00;101811.69;2063913;28;20097;-62
2021/03/02 04:39:20;;;;;;;33.03;18.63;;;;;;;-2.00;100.00;101816.06;2064019;28;20057;-61
2021/03/02 04:40:21;;;;;;;32.70;17.17;;;;;;;-1.90;100.00;101808.00;2063776;28;20031;-62
2021/03/02 04:41:22;;;;;;;31.20;17.45;;;;;;;-1.89;100.00;101809.78;2063276;28;20493;-61
2021/03/02 04:42:22;;;;;;;35.53;18.77;;;;;;;-1.80;100.00;101814.44;2063535;28;20164;-61
2021/03/02 04:43:23;;;;;;;36.75;17.27;;;;;;;-1.55;100.00;101809.59;2063552;28;20565;-61
2021/03/02 04:44:24;;;;;;;31.00;17.27;;;;;;;-1.51;100.00;101811.47;2064219;28;20034;-61